Time;durP1;ratioP1;P1;durP2;ratioP2;P2;SDS_P1;SDS_P2;PMS_P1;PMS_P2;Temp;Humidity;BMP_temperature;BMP_pressure;BME280_temperature;BME280_humidity;BME280_pressure;Samples;Min_cycle;Max_cycle;Signal;HPM_P1;HPM_P2
2023/03/20 00:00:46;;;;;;;1.40;1.30;;;;;;;-1.38;39.83;63556.19;5091190;28;20278;-80
2023/03/20 00:03:12;;;;;;;;;;;;;;;-1.26;39.62;63568.97;5075099;28;20066;-79
2023/03/20 00:05:39;;;;;;;1.50;1.40;;;;;;;-1.33;39.99;63561.19;5091171;28;19927;-80
2023/03/20 00:08:05;;;;;;;1.77;1.40;;;;;;;-1.36;39.79;63574.00;5075439;28;20075;-80
2023/03/20 00:10:37;;;;;;;3.08;1.20;;;;;;;-1.39;40.59;63554.50;5057537;28;20080;-80
2023/03/20 00:13:05;;;;;;;1.60;1.00;;;;;;;-1.35;40.51;63559.53;5041335;28;20036;-79
2023/03/20 00:15:37;;;;;;;4.75;2.28;;;;;;;-1.25;40.45;63570.63;5074026;28;20407;-79
2023/03/20 00:18:17;;;;;;;1.40;1.30;;;;;;;-1.27;39.85;63568.44;5057343;28;20105;-79
2023/03/20 00:20:45;;;;;;;2.55;1.15;;;;;;;-1.19;40.44;63592.38;5091355;28;20054;-80
2023/03/20 00:23:11;;;;;;;1.77;1.48;;;;;;;-1.26;40.28;63569.53;5090723;28;20051;-81
2023/03/20 00:25:39;;;;;;;1.40;1.30;;;;;;;-1.34;40.07;63560.63;5090724;28;20518;-80
2023/03/20 00:28:27;;;;;;;4.05;1.15;;;;;;;-1.38;39.86;63571.78;5074822;28;20049;-80
2023/03/20 00:30:54;;;;;;;4.43;1.30;;;;;;;-1.42;39.45;63551.75;5048169;28;20052;-80
2023/03/20 00:33:21;;;;;;;1.10;1.00;;;;;;;-1.48;39.11;63545.06;5073683;28;20040;-81
2023/03/20 00:35:48;;;;;;;1.40;1.30;;;;;;;-1.55;39.62;63553.44;5073883;28;20095;-80
2023/03/20 00:38:14;;;;;;;5.90;1.58;;;;;;;-1.66;39.49;63525.06;5073969;28;20075;-79
2023/03/20 00:40:40;;;;;;;1.75;1.38;;;;;;;-1.62;39.63;63530.06;5073713;28;20127;-80
2023/03/20 00:43:09;;;;;;;1.92;1.30;;;;;;;-1.50;39.69;63558.44;5073259;28;20102;-79
2023/03/20 00:45:35;;;;;;;;;;;;;;;-1.48;39.60;63545.63;5057480;28;20170;-79
2023/03/20 00:48:02;;;;;;;4.18;1.40;;;;;;;-1.52;39.60;63561.97;5073452;28;19958;-81
2023/03/20 00:50:30;;;;;;;6.60;1.30;;;;;;;-1.58;39.64;63550.09;5040221;28;20554;-78
2023/03/20 00:52:58;;;;;;;2.40;1.30;;;;;;;-1.61;39.71;63531.19;5073645;28;20100;-81
2023/03/20 00:55:28;;;;;;;4.00;1.60;;;;;;;-1.55;40.06;63552.88;5056581;28;20032;-80
2023/03/20 00:57:59;;;;;;;1.73;1.33;;;;;;;-1.53;40.11;63540.06;5073209;28;20978;-79
2023/03/20 01:00:33;;;;;;;1.70;1.55;;;;;;;-1.59;40.26;63532.84;5040206;28;20057;-78
2023/03/20 01:03:01;;;;;;;3.00;1.10;;;;;;;-1.63;40.59;63541.94;5073347;28;20048;-79
2023/03/20 01:05:27;;;;;;;3.45;1.50;;;;;;;-1.56;40.09;63552.31;5072982;28;20044;-80
2023/03/20 01:07:54;;;;;;;1.55;1.33;;;;;;;-1.59;39.46;63532.84;5056320;28;20086;-80
2023/03/20 01:10:28;;;;;;;3.65;1.60;;;;;;;-1.66;39.70;63525.06;5056248;28;20051;-81
2023/03/20 01:12:58;;;;;;;5.95;1.45;;;;;;;-1.54;39.61;63538.97;5056557;28;20044;-81
2023/03/20 01:15:26;;;;;;;;;;;;;;;-1.41;39.44;63552.84;5056683;28;20052;-79
2023/03/20 01:17:52;;;;;;;4.20;1.50;;;;;;;-1.61;39.75;63530.63;5089628;28;19916;-79
2023/03/20 01:20:23;;;;;;;3.85;1.35;;;;;;;-1.54;40.11;63538.41;5074063;28;20040;-81
2023/03/20 01:22:49;;;;;;;3.72;1.73;;;;;;;-1.43;40.25;63550.06;5039446;28;20143;-79
2023/03/20 01:25:15;;;;;;;2.65;1.52;;;;;;;-1.41;40.16;63568.44;5073805;28;20120;-79
2023/03/20 01:27:43;;;;;;;2.22;1.33;;;;;;;-1.42;39.79;63567.34;5073629;28;20496;-80
2023/03/20 01:30:27;;;;;;;2.50;2.30;;;;;;;-1.41;40.09;63552.84;5055953;28;20051;-80
2023/03/20 01:32:55;;;;;;;3.58;1.70;;;;;;;-1.37;40.30;63572.91;5056006;28;20514;-80
2023/03/20 01:35:24;;;;;;;8.55;1.73;;;;;;;-1.27;40.01;63568.44;5072322;28;20058;-81
2023/03/20 01:37:51;;;;;;;1.98;1.65;;;;;;;-1.31;39.48;63563.97;5089669;28;20040;-80
2023/03/20 01:40:36;;;;;;;4.53;1.67;;;;;;;-1.37;39.89;63557.28;5073906;28;20178;-79
2023/03/20 01:43:02;;;;;;;2.28;1.42;;;;;;;-1.57;39.58;63535.63;5055952;28;20143;-80
2023/03/20 01:45:36;;;;;;;3.58;1.60;;;;;;;-1.50;39.44;63559.00;5072277;28;20059;-81
2023/03/20 01:48:21;;;;;;;5.68;1.95;;;;;;;-1.57;39.28;63535.06;5072284;28;20037;-81
2023/03/20 01:51:03;;;;;;;6.30;2.05;;;;;;;-1.50;39.77;63542.84;5071131;28;20047;-82
2023/03/20 01:53:29;;;;;;;2.80;1.58;;;;;;;-1.58;40.22;63549.53;5055742;28;20058;-80
2023/03/20 01:56:00;;;;;;;5.22;2.78;;;;;;;-1.54;39.83;63538.41;5088723;28;20044;-79
2023/03/20 01:58:40;;;;;;;3.50;1.80;;;;;;;-1.50;39.65;63542.84;5071893;28;20044;-81
2023/03/20 02:01:10;;;;;;;3.65;1.70;;;;;;;-1.55;39.91;63537.28;5055574;28;20051;-80
2023/03/20 02:03:37;;;;;;;3.83;1.85;;;;;;;-1.48;39.41;63545.63;5072235;28;20135;-79
2023/03/20 02:06:31;;;;;;;15.30;1.88;;;;;;;-1.58;39.67;63533.94;5071986;28;20045;-79
2023/03/20 02:09:10;;;;;;;3.75;1.80;;;;;;;-1.63;39.43;63528.41;5055535;28;20041;-78
2023/03/20 02:11:42;;;;;;;8.88;1.80;;;;;;;-1.54;40.16;63554.00;5071757;28;20066;-80
2023/03/20 02:14:09;;;;;;;9.35;1.85;;;;;;;-1.66;40.15;63525.06;5071185;28;20051;-80
2023/03/20 02:16:47;;;;;;;14.80;3.65;;;;;;;-1.58;40.18;63533.94;5054909;28;20043;-85
2023/03/20 02:19:55;;;;;;;8.38;2.25;;;;;;;-1.50;40.04;63543.41;5072224;28;20438;-80
2023/03/20 02:22:54;;;;;;;6.65;1.90;;;;;;;-1.57;40.63;63550.66;5038157;28;20044;-80
2023/03/20 02:25:47;;;;;;;6.05;1.83;;;;;;;-1.71;39.79;63520.63;5054739;28;20044;-79
2023/03/20 02:28:19;;;;;;;3.65;2.28;;;;;;;-1.88;40.88;63501.72;5070894;28;20054;-79
2023/03/20 02:31:16;;;;;;;4.65;2.33;;;;;;;-1.71;40.98;63520.63;5088109;28;20040;-81
2023/03/20 02:33:41;;;;;;;11.55;2.60;;;;;;;-1.61;40.96;63530.63;5088004;28;20048;-80
2023/03/20 02:36:25;;;;;;;18.33;2.40;;;;;;;-1.52;40.74;63556.22;5054809;28;20062;-80
2023/03/20 02:38:54;;;;;;;9.45;2.13;;;;;;;-1.56;40.17;63536.19;5071454;28;20041;-81
2023/03/20 02:41:54;;;;;;;9.35;2.22;;;;;;;-1.59;39.95;63532.84;5037719;28;20044;-81
2023/03/20 02:44:37;;;;;;;12.82;1.80;;;;;;;-1.50;39.93;63542.84;5073549;28;20491;-81
2023/03/20 02:47:14;;;;;;;9.48;2.40;;;;;;;-1.64;40.28;63527.28;5059845;28;20039;-81
2023/03/20 02:49:53;;;;;;;8.15;2.08;;;;;;;-1.51;40.37;63541.72;5088990;28;20060;-80
2023/03/20 02:52:32;;;;;;;16.50;1.83;;;;;;;-1.56;40.27;63536.72;5080230;28;20049;-87
2023/03/20 02:55:01;;;;;;;7.25;2.20;;;;;;;-1.49;40.05;63544.50;5038733;28;20036;-82
2023/03/20 02:58:00;;;;;;;13.70;2.10;;;;;;;-1.39;40.57;63554.50;5071795;28;20059;-82
2023/03/20 03:00:46;;;;;;;10.10;2.20;;;;;;;-1.24;40.21;63571.22;5072447;28;20049;-81
2023/03/20 03:03:23;;;;;;;10.65;2.45;;;;;;;-1.19;40.23;63576.22;5057507;28;20044;-80
2023/03/20 03:05:54;;;;;;;14.30;2.20;;;;;;;-1.33;40.53;63561.75;5059383;28;20044;-84
2023/03/20 03:08:23;;;;;;;11.40;2.53;;;;;;;-1.21;40.81;63590.13;5073965;28;20044;-81
2023/03/20 03:10:57;;;;;;;5.05;2.17;;;;;;;-1.09;40.03;63603.50;5072451;28;20131;-79
2023/03/20 03:13:28;;;;;;;30.38;2.38;;;;;;;-1.03;40.16;63594.00;5071042;28;20045;-84
2023/03/20 03:16:01;;;;;;;11.50;2.40;;;;;;;-0.97;40.00;63600.69;5038068;28;20052;-81
2023/03/20 03:18:31;;;;;;;10.85;2.20;;;;;;;-0.96;39.16;63601.78;5054998;28;20552;-82
2023/03/20 03:21:01;;;;;;;5.97;2.05;;;;;;;-1.08;39.21;63589.00;5057248;28;20044;-84
2023/03/20 03:23:36;;;;;;;15.13;1.90;;;;;;;-1.02;39.19;63595.09;5080244;28;20048;-76
2023/03/20 03:26:05;;;;;;;12.07;2.78;;;;;;;-1.13;39.03;63582.88;5072117;28;20044;-78
2023/03/20 03:28:45;;;;;;;17.50;2.25;;;;;;;-1.09;38.60;63587.31;5074644;28;20060;-77
2023/03/20 03:31:14;;;;;;;6.55;2.38;;;;;;;-0.94;38.91;63604.03;5074983;28;20045;-82
2023/03/20 03:33:44;;;;;;;14.48;2.45;;;;;;;-0.78;38.42;63621.25;5041474;28;20041;-78
2023/03/20 03:36:21;;;;;;;12.07;2.60;;;;;;;-0.69;37.96;63631.25;5074516;28;20071;-78
2023/03/20 03:39:06;;;;;;;5.78;2.20;;;;;;;-0.83;37.63;63616.25;5074492;28;20557;-81
2023/03/20 03:41:38;;;;;;;7.22;2.20;;;;;;;-0.96;38.36;63617.38;5058200;28;20047;-80
2023/03/20 03:44:27;;;;;;;5.22;2.65;;;;;;;-0.87;38.33;63627.41;5058017;28;20494;-77
2023/03/20 03:47:03;;;;;;;6.43;2.03;;;;;;;-0.67;38.70;63632.94;5041614;28;20048;-80
2023/03/20 03:49:36;;;;;;;10.82;2.17;;;;;;;-0.53;38.30;63666.72;5077960;28;20080;-79
2023/03/20 03:52:14;;;;;;;5.30;2.08;;;;;;;-0.49;38.06;63668.56;5071232;28;20047;-79
2023/03/20 03:54:48;;;;;;;1.90;1.70;;;;;;;-0.47;37.86;63654.63;5076470;28;20053;-78
2023/03/20 03:57:48;;;;;;;8.70;1.50;;;;;;;-0.34;37.43;63669.66;5084540;28;20051;-78
2023/03/20 04:00:19;;;;;;;7.40;2.80;;;;;;;-0.27;37.16;63677.44;5111601;28;20132;-79
2023/03/20 04:02:49;;;;;;;12.57;2.92;;;;;;;-0.11;37.06;63694.16;5111172;28;20048;-80
2023/03/20 04:05:17;;;;;;;;;;;;;;;-0.04;36.78;63701.94;5111708;28;20089;-77
2023/03/20 04:07:51;;;;;;;12.30;2.40;;;;;;;-0.03;37.03;63703.06;5110938;28;19920;-79
2023/03/20 04:10:17;;;;;;;5.97;2.05;;;;;;;-0.07;35.72;63698.63;5076355;28;20180;-78
2023/03/20 04:12:44;;;;;;;41.08;3.90;;;;;;;-0.15;36.61;63690.25;5096306;28;20071;-78
2023/03/20 04:15:12;;;;;;;8.07;2.15;;;;;;;-0.11;36.93;63694.16;5094138;28;20102;-80
2023/03/20 04:17:38;;;;;;;8.77;2.60;;;;;;;-0.14;36.87;63690.81;5076960;28;20028;-81
2023/03/20 04:20:06;;;;;;;10.63;2.03;;;;;;;-0.17;36.68;63687.47;5077126;28;20523;-80
2023/03/20 04:22:33;;;;;;;11.70;2.25;;;;;;;-0.13;37.30;63691.94;5076940;28;20127;-82
2023/03/20 04:25:09;;;;;;;9.63;1.95;;;;;;;-0.25;37.65;63679.13;5094045;28;20510;-81
2023/03/20 04:27:35;;;;;;;12.10;2.28;;;;;;;-0.22;37.46;63681.91;5093547;28;20075;-80
2023/03/20 04:30:09;;;;;;;9.38;2.38;;;;;;;0.06;37.65;63713.06;5093457;28;20196;-81
2023/03/20 04:32:56;;;;;;;9.45;2.38;;;;;;;0.34;37.24;63743.16;5093886;28;20499;-79
2023/03/20 04:35:36;;;;;;;20.10;2.83;;;;;;;0.59;37.21;63786.63;5073510;28;20127;-80
2023/03/20 04:38:09;;;;;;;4.82;2.35;;;;;;;0.65;36.63;63777.69;5093871;28;20249;-80
2023/03/20 04:40:35;;;;;;;8.63;2.40;;;;;;;0.76;36.45;63788.84;5094790;28;20181;-81
2023/03/20 04:43:01;;;;;;;23.35;3.15;;;;;;;0.84;37.11;63797.75;5076633;28;20444;-81
2023/03/20 04:45:27;;;;;;;20.98;3.00;;;;;;;0.93;36.27;63807.78;5076486;28;20118;-79
2023/03/20 04:47:53;;;;;;;7.22;2.30;;;;;;;0.80;35.79;63793.84;5093218;28;20442;-83
2023/03/20 04:50:21;;;;;;;19.58;3.00;;;;;;;0.82;35.14;63795.50;5093450;28;20050;-79
2023/03/20 04:52:48;;;;;;;16.00;2.67;;;;;;;0.64;35.75;63776.00;5093225;28;20109;-80
2023/03/20 04:55:15;;;;;;;7.95;2.00;;;;;;;0.59;35.87;63771.00;5076486;28;20054;-79
2023/03/20 04:57:41;;;;;;;6.45;2.10;;;;;;;0.70;35.48;63783.25;5093209;28;20483;-81
2023/03/20 05:00:10;;;;;;;5.75;2.42;;;;;;;0.73;35.34;63786.59;5074947;28;20101;-81
2023/03/20 05:02:36;;;;;;;19.17;4.72;;;;;;;0.80;35.05;63793.84;5107497;28;20048;-80
2023/03/20 05:05:03;;;;;;;15.68;2.65;;;;;;;0.80;35.53;63793.84;5091527;28;20051;-80
2023/03/20 05:07:30;;;;;;;5.45;2.13;;;;;;;0.65;35.66;63777.69;5091277;28;20035;-80
2023/03/20 05:10:04;;;;;;;15.35;4.78;;;;;;;0.70;36.03;63782.69;5058649;28;20451;-81
2023/03/20 05:12:38;;;;;;;21.80;3.65;;;;;;;0.45;35.64;63755.97;5058572;28;20059;-79
2023/03/20 05:15:26;;;;;;;10.07;2.37;;;;;;;0.33;36.05;63758.22;5085078;28;20055;-82
2023/03/20 05:18:11;;;;;;;9.57;2.83;;;;;;;0.30;36.26;63754.91;5094483;28;20051;-80
2023/03/20 05:20:49;;;;;;;13.60;2.70;;;;;;;0.34;36.38;63743.72;5093594;28;20056;-81
2023/03/20 05:23:37;;;;;;;;;;;;;;;0.50;35.77;63760.97;5092127;28;20135;-79
2023/03/20 05:26:35;;;;;;;16.42;3.17;;;;;;;0.47;35.65;63758.19;5070327;28;20374;-80
2023/03/20 05:29:04;;;;;;;13.43;6.28;;;;;;;0.78;36.73;63791.63;5094224;28;20077;-80
2023/03/20 05:31:35;;;;;;;14.07;2.67;;;;;;;1.19;35.41;63836.75;5093078;28;20040;-84
2023/03/20 05:34:24;;;;;;;8.93;2.87;;;;;;;1.30;35.18;63848.47;5082321;28;20078;-81
2023/03/20 05:37:03;;;;;;;10.63;3.17;;;;;;;1.50;35.34;63869.66;5075515;28;20282;-81
2023/03/20 05:39:54;;;;;;;14.93;3.72;;;;;;;1.92;35.51;63915.97;5092673;28;20055;-80
2023/03/20 05:42:38;;;;;;;5.72;2.75;;;;;;;2.14;34.81;63939.94;5093821;28;20044;-81
2023/03/20 05:45:16;;;;;;;6.22;2.67;;;;;;;2.24;34.32;63950.53;5077183;28;20101;-80
2023/03/20 05:48:05;;;;;;;12.48;3.30;;;;;;;2.33;34.25;63961.16;5081030;28;20094;-80
2023/03/20 05:50:46;;;;;;;4.85;2.80;;;;;;;2.35;34.52;63962.81;5075372;28;20044;-81
2023/03/20 05:53:35;;;;;;;9.53;3.30;;;;;;;2.62;33.64;63992.41;5064529;28;20046;-81
2023/03/20 05:56:19;;;;;;;8.23;2.78;;;;;;;2.65;33.43;63996.31;5092556;28;20377;-80
2023/03/20 05:59:01;;;;;;;12.90;2.95;;;;;;;2.79;33.12;64010.84;5092448;28;20046;-81
2023/03/20 06:01:47;;;;;;;14.73;2.83;;;;;;;2.59;33.23;63989.59;5075295;28;20063;-79
2023/03/20 06:04:33;;;;;;;12.20;3.17;;;;;;;2.80;33.41;64011.94;5091589;28;20094;-80
2023/03/20 06:07:19;;;;;;;7.45;3.10;;;;;;;2.90;33.02;64023.13;5092125;28;20051;-81
2023/03/20 06:09:54;;;;;;;14.95;3.47;;;;;;;2.99;33.12;64033.16;5076588;28;20124;-80
2023/03/20 06:12:21;;;;;;;10.15;3.30;;;;;;;2.91;33.42;64024.78;5091926;28;20504;-81
2023/03/20 06:14:47;;;;;;;25.02;3.42;;;;;;;2.73;33.30;64004.69;5091261;28;20093;-79
2023/03/20 06:17:13;;;;;;;11.30;2.80;;;;;;;2.78;32.99;64009.69;5073941;28;20044;-82
2023/03/20 06:19:40;;;;;;;16.17;3.40;;;;;;;2.52;32.94;63981.81;5058100;28;20479;-82
2023/03/20 06:22:05;;;;;;;33.30;4.60;;;;;;;2.33;33.04;63960.56;5073927;28;20067;-82
2023/03/20 06:24:32;;;;;;;17.98;2.80;;;;;;;2.64;32.27;63994.63;5090618;28;20036;-82
2023/03/20 06:26:58;;;;;;;8.57;2.50;;;;;;;2.65;32.04;63995.75;5073275;28;20056;-81
2023/03/20 06:29:25;;;;;;;17.83;3.30;;;;;;;2.98;32.86;64031.50;5073460;28;20044;-81
2023/03/20 06:31:53;;;;;;;22.17;3.27;;;;;;;3.20;31.16;64055.50;5073511;28;20120;-80
2023/03/20 06:34:27;;;;;;;8.48;2.80;;;;;;;3.20;30.61;64055.50;5058422;28;20164;-79
2023/03/20 06:36:53;;;;;;;9.32;2.78;;;;;;;3.17;30.36;64052.72;5057071;28;20177;-82
2023/03/20 06:39:22;;;;;;;6.75;2.80;;;;;;;3.25;30.42;64061.09;5073609;28;20086;-81
2023/03/20 06:41:48;;;;;;;11.30;3.10;;;;;;;3.37;31.20;64074.50;5040811;28;20047;-81
2023/03/20 06:44:14;;;;;;;4.45;2.42;;;;;;;3.64;30.73;64104.66;5058631;28;20087;-81
2023/03/20 06:46:58;;;;;;;2.90;1.92;;;;;;;3.57;28.97;64096.84;5073810;28;20063;-79
2023/03/20 06:49:25;;;;;;;4.20;2.63;;;;;;;3.47;29.52;64101.38;5073452;28;20479;-80
2023/03/20 06:51:50;;;;;;;6.70;2.03;;;;;;;3.63;29.38;64103.53;5077711;28;20059;-81
2023/03/20 06:54:23;;;;;;;5.10;2.55;;;;;;;3.47;29.22;64085.13;5074194;28;20051;-81
2023/03/20 06:56:50;;;;;;;7.35;3.35;;;;;;;3.82;29.93;64123.66;5091210;28;20051;-81
2023/03/20 06:59:16;;;;;;;8.07;2.67;;;;;;;3.80;29.78;64122.00;5074422;28;20486;-83
2023/03/20 07:01:43;;;;;;;3.80;2.28;;;;;;;3.87;28.87;64129.25;5078939;28;20040;-80
2023/03/20 07:04:09;;;;;;;4.53;1.50;;;;;;;3.88;28.88;64130.94;5078334;28;20066;-80
2023/03/20 07:06:41;;;;;;;6.35;1.98;;;;;;;4.07;28.88;64151.63;5062974;28;20090;-80
2023/03/20 07:09:08;;;;;;;9.88;2.53;;;;;;;3.87;28.57;64129.25;5095951;28;20127;-80
2023/03/20 07:11:34;;;;;;;5.68;2.25;;;;;;;3.81;28.94;64123.13;5097294;28;20060;-82
2023/03/20 07:14:03;;;;;;;7.13;2.28;;;;;;;3.82;28.81;64123.66;5096214;28;20048;-80
2023/03/20 07:16:49;;;;;;;;;;;;;;;3.90;28.98;64132.59;5081741;28;20127;-81
2023/03/20 07:19:15;;;;;;;3.80;2.08;;;;;;;3.91;28.53;64133.72;5095143;28;20002;-82
2023/03/20 07:21:44;;;;;;;7.17;2.23;;;;;;;4.24;28.85;64170.06;5095309;28;20071;-81
2023/03/20 07:24:12;;;;;;;9.32;2.47;;;;;;;4.47;29.46;64195.22;5078129;28;20281;-80
2023/03/20 07:26:40;;;;;;;4.00;2.03;;;;;;;4.58;29.30;64207.53;5073950;28;20470;-80
2023/03/20 07:29:06;;;;;;;10.93;2.13;;;;;;;4.19;29.91;64163.94;5057998;28;20048;-80
2023/03/20 07:31:32;;;;;;;9.43;2.25;;;;;;;4.27;30.46;64173.44;5071897;28;20050;-80
2023/03/20 07:34:12;;;;;;;4.53;2.40;;;;;;;4.25;30.84;64171.19;5063414;28;20058;-80
2023/03/20 07:36:40;;;;;;;15.30;2.17;;;;;;;4.52;30.69;64200.84;5077950;28;20071;-82
2023/03/20 07:39:08;;;;;;;7.07;2.30;;;;;;;4.83;30.83;64234.97;5094844;28;20052;-80
2023/03/20 07:41:36;;;;;;;5.00;2.38;;;;;;;4.43;30.44;64190.75;5078466;28;20071;-81
2023/03/20 07:44:07;;;;;;;;;;;;;;;4.44;30.28;64191.88;5072279;28;20070;-79
2023/03/20 07:46:46;;;;;;;7.05;2.55;;;;;;;4.63;30.31;64212.59;5077410;28;19942;-82
2023/03/20 07:49:17;;;;;;;18.40;3.20;;;;;;;4.94;30.52;64246.72;5081247;28;20036;-81
2023/03/20 07:51:45;;;;;;;10.85;2.63;;;;;;;5.29;30.00;64285.31;5074478;28;20048;-80
2023/03/20 07:54:11;;;;;;;12.00;2.63;;;;;;;5.62;29.95;64321.16;5074599;28;20048;-80
2023/03/20 07:56:37;;;;;;;5.18;2.80;;;;;;;5.62;29.30;64320.59;5057622;28;20487;-87
2023/03/20 07:59:03;;;;;;;4.15;2.65;;;;;;;5.46;29.88;64303.81;5041047;28;20098;-79
2023/03/20 08:01:36;;;;;;;5.18;2.15;;;;;;;5.38;29.73;64294.28;5075596;28;20048;-81
2023/03/20 08:04:02;;;;;;;4.47;2.30;;;;;;;5.39;29.47;64295.97;5057704;28;20419;-78
2023/03/20 08:06:27;;;;;;;8.52;2.83;;;;;;;5.20;30.18;64275.25;5074303;28;20048;-80
2023/03/20 08:08:53;;;;;;;9.90;2.08;;;;;;;5.31;30.22;64287.00;5074070;28;20040;-78
2023/03/20 08:11:19;;;;;;;3.05;2.17;;;;;;;5.24;30.03;64279.19;5039915;28;20380;-79
2023/03/20 08:13:45;;;;;;;8.52;2.78;;;;;;;5.06;30.77;64259.56;5075129;28;20181;-81
2023/03/20 08:16:11;;;;;;;3.17;2.50;;;;;;;5.16;30.68;64270.22;5080044;28;20052;-87
2023/03/20 08:18:38;;;;;;;6.43;2.47;;;;;;;5.26;32.28;64281.41;5080486;28;20037;-91
2023/03/20 08:21:04;;;;;;;5.03;2.15;;;;;;;5.52;34.42;64310.50;5041439;28;20046;-89
2023/03/20 08:23:30;;;;;;;7.57;2.50;;;;;;;5.53;32.99;64311.09;5076252;28;20045;-84
2023/03/20 08:25:56;;;;;;;3.58;2.50;;;;;;;5.77;33.01;64337.41;5057653;28;20044;-89
2023/03/20 08:28:22;;;;;;;3.42;2.80;;;;;;;5.80;29.96;64341.31;5073731;28;20048;-79
2023/03/20 08:30:48;;;;;;;9.23;2.53;;;;;;;5.78;30.74;64339.06;5075182;28;20128;-84
2023/03/20 08:33:15;;;;;;;6.68;2.63;;;;;;;6.11;30.53;64374.38;5073460;28;20423;-81
2023/03/20 08:35:42;;;;;;;6.35;2.55;;;;;;;6.07;29.23;64370.47;5056792;28;20127;-79
2023/03/20 08:38:14;;;;;;;7.75;2.70;;;;;;;6.05;29.43;64368.78;5073483;28;20036;-77
2023/03/20 08:40:41;;;;;;;7.80;2.60;;;;;;;5.98;29.51;64360.94;5057096;28;20164;-76
2023/03/20 08:43:07;;;;;;;10.07;3.10;;;;;;;6.06;29.28;64369.34;5072400;28;20068;-79
2023/03/20 08:45:33;;;;;;;16.65;3.17;;;;;;;6.12;28.74;64375.50;5074452;28;20041;-81
2023/03/20 08:47:59;;;;;;;9.63;2.70;;;;;;;6.36;28.53;64402.41;5074015;28;20101;-78
2023/03/20 08:50:25;;;;;;;5.13;2.90;;;;;;;6.85;28.90;64456.22;5072760;28;20446;-79
2023/03/20 08:52:51;;;;;;;9.93;2.97;;;;;;;7.08;28.35;64481.44;5072873;28;20476;-79
2023/03/20 08:55:18;;;;;;;6.22;2.83;;;;;;;7.09;28.19;64482.00;5072733;28;20097;-79
2023/03/20 08:57:45;;;;;;;4.95;3.00;;;;;;;7.39;28.39;64515.66;5055934;28;20045;-79
2023/03/20 09:00:13;;;;;;;8.30;3.15;;;;;;;7.33;27.32;64508.91;5072650;28;20048;-79
2023/03/20 09:02:39;;;;;;;7.20;2.83;;;;;;;7.16;27.95;64489.84;5056266;28;20060;-80
2023/03/20 09:05:05;;;;;;;5.65;2.78;;;;;;;6.96;28.33;64468.56;5074088;28;20040;-79
2023/03/20 09:07:32;;;;;;;10.27;3.22;;;;;;;6.74;28.86;64443.88;5072256;28;20372;-80
2023/03/20 09:09:57;;;;;;;9.07;3.00;;;;;;;6.59;28.80;64427.06;5074931;28;20044;-79
2023/03/20 09:12:23;;;;;;;15.57;2.92;;;;;;;6.65;29.84;64433.78;5072765;28;20052;-80
2023/03/20 09:14:49;;;;;;;7.97;3.00;;;;;;;6.56;29.80;64424.25;5057135;28;20079;-78
2023/03/20 09:17:15;;;;;;;5.20;2.97;;;;;;;6.80;30.29;64450.59;5074625;28;20071;-80
2023/03/20 09:19:43;;;;;;;76.50;35.47;;;;;;;7.06;30.04;64479.75;5058565;28;20056;-82
2023/03/20 09:22:16;;;;;;;6.38;2.97;;;;;;;7.24;30.01;64498.81;5073734;28;20045;-79
2023/03/20 09:24:43;;;;;;;5.55;3.25;;;;;;;7.27;30.37;64502.75;5074298;28;20049;-80
2023/03/20 09:27:12;;;;;;;9.68;3.33;;;;;;;7.10;30.27;64483.69;5071413;28;20068;-80
2023/03/20 09:29:39;;;;;;;9.55;3.10;;;;;;;7.12;30.46;64485.38;5073330;28;20048;-78
2023/03/20 09:32:05;;;;;;;13.90;3.40;;;;;;;7.10;30.39;64483.13;5078247;28;20048;-78
2023/03/20 09:34:31;;;;;;;5.15;2.85;;;;;;;7.23;30.54;64498.28;5038497;28;20043;-79
2023/03/20 09:36:57;;;;;;;7.65;2.67;;;;;;;7.40;30.26;64516.22;5072019;28;20510;-80
2023/03/20 09:39:23;;;;;;;10.98;2.63;;;;;;;7.24;30.20;64498.81;5049212;28;20044;-80
2023/03/20 09:41:51;;;;;;;4.95;2.78;;;;;;;7.18;29.95;64492.09;5071184;28;20135;-78
2023/03/20 09:44:40;;;;;;;7.38;2.95;;;;;;;7.01;29.54;64474.16;5038542;28;20043;-78
2023/03/20 09:47:39;;;;;;;18.27;9.40;;;;;;;7.01;29.55;64474.16;5064002;28;20114;-78
2023/03/20 09:50:25;;;;;;;4.75;2.90;;;;;;;6.89;30.55;64460.16;5038958;28;20135;-79
2023/03/20 09:52:58;;;;;;;10.63;2.92;;;;;;;6.57;31.45;64425.38;5072864;28;20040;-80
2023/03/20 09:55:32;;;;;;;31.00;3.60;;;;;;;6.44;30.96;64410.81;5054715;28;20051;-77
2023/03/20 09:58:05;;;;;;;11.20;3.05;;;;;;;6.34;30.15;64400.16;5087747;28;20131;-81
2023/03/20 10:00:34;;;;;;;9.88;2.78;;;;;;;6.11;30.42;64374.38;5071893;28;20049;-79
2023/03/20 10:03:21;;;;;;;11.52;3.67;;;;;;;5.66;31.41;64325.63;5072094;28;20044;-79
2023/03/20 10:06:03;;;;;;;3.72;2.50;;;;;;;5.89;30.81;64350.84;5071653;28;20052;-77
2023/03/20 10:08:35;;;;;;;7.40;3.42;;;;;;;5.82;31.13;64343.00;5071960;28;20048;-77
2023/03/20 10:11:19;;;;;;;5.05;2.78;;;;;;;5.80;30.49;64341.31;5055017;28;20040;-78
2023/03/20 10:14:07;;;;;;;6.57;2.42;;;;;;;5.83;30.28;64344.69;5071736;28;20036;-77
2023/03/20 10:16:46;;;;;;;8.13;3.03;;;;;;;5.71;30.60;64330.66;5039078;28;20044;-79
2023/03/20 10:19:23;;;;;;;12.10;3.25;;;;;;;5.64;31.01;64322.81;5073135;28;20044;-78
2023/03/20 10:22:13;;;;;;;13.90;3.38;;;;;;;5.62;31.12;64320.59;5072134;28;20055;-79
2023/03/20 10:24:46;;;;;;;8.60;3.38;;;;;;;5.66;31.01;64325.06;5054210;28;20044;-79
2023/03/20 10:27:21;;;;;;;12.18;3.20;;;;;;;5.66;30.68;64325.06;5054776;28;20084;-78
2023/03/20 10:30:50;;;;;;;14.38;3.75;;;;;;;5.51;30.91;64308.84;5073037;28;20047;-78
2023/03/20 10:33:36;;;;;;;;;;;;;;;5.46;30.36;64303.25;5014692;28;20085;-79
2023/03/20 10:36:32;;;;;;;11.98;2.80;;;;;;;5.60;30.74;64318.91;4997214;28;19924;-79
2023/03/20 10:39:08;;;;;;;7.78;2.60;;;;;;;5.65;30.44;64324.53;5047028;28;20481;-79
2023/03/20 10:41:37;;;;;;;9.98;3.10;;;;;;;5.74;30.80;64334.59;5055095;28;20040;-79
2023/03/20 10:44:05;;;;;;;5.45;2.70;;;;;;;5.77;30.89;64337.41;5072327;28;20535;-80
2023/03/20 10:46:36;;;;;;;5.85;2.60;;;;;;;5.78;30.62;64338.50;5054770;28;20044;-79
2023/03/20 10:49:10;;;;;;;11.00;2.63;;;;;;;5.81;31.00;64341.88;5071386;28;20044;-81
2023/03/20 10:51:50;;;;;;;8.00;2.58;;;;;;;5.82;31.08;64343.56;5072689;28;20041;-80
2023/03/20 10:54:24;;;;;;;5.40;2.72;;;;;;;5.65;30.76;64323.97;5071682;28;20052;-82
2023/03/20 10:56:54;;;;;;;14.50;2.67;;;;;;;5.47;31.47;64304.91;5054743;28;20040;-81
2023/03/20 10:59:23;;;;;;;7.57;3.25;;;;;;;5.47;31.68;64304.91;5072997;28;20044;-79
2023/03/20 11:01:49;;;;;;;6.03;2.50;;;;;;;5.52;31.63;64309.94;5071099;28;20105;-80
2023/03/20 11:04:15;;;;;;;6.55;2.70;;;;;;;5.50;31.13;64307.72;5088001;28;20041;-79
2023/03/20 11:06:51;;;;;;;5.05;2.65;;;;;;;5.29;31.76;64285.31;5037970;28;20049;-80
2023/03/20 11:09:23;;;;;;;3.33;2.40;;;;;;;5.16;32.30;64270.22;5071266;28;20045;-80
2023/03/20 11:11:55;;;;;;;6.28;2.50;;;;;;;5.13;32.45;64267.41;5054181;28;20645;-80
2023/03/20 11:14:24;;;;;;;3.97;2.15;;;;;;;5.02;32.75;64255.09;5037793;28;20036;-80
2023/03/20 11:16:54;;;;;;;5.60;2.25;;;;;;;5.08;32.86;64261.81;5070981;28;20048;-80
2023/03/20 11:19:22;;;;;;;3.10;2.03;;;;;;;5.15;33.52;64269.66;5054688;28;20089;-80
2023/03/20 11:21:56;;;;;;;6.75;3.03;;;;;;;5.18;33.20;64272.44;5055217;28;20060;-80
2023/03/20 11:24:41;;;;;;;9.77;2.70;;;;;;;5.07;33.01;64261.25;5037919;28;20040;-79
2023/03/20 11:27:11;;;;;;;3.53;2.45;;;;;;;4.74;33.81;64224.31;5072346;28;20049;-79
2023/03/20 11:29:39;;;;;;;;;;;;;;;4.57;34.23;64206.44;5072450;28;20497;-79
2023/03/20 11:32:38;;;;;;;5.03;2.25;;;;;;;4.57;33.73;64206.44;5054185;28;19920;-78
2023/03/20 11:35:21;;;;;;;14.13;3.40;;;;;;;4.59;34.10;64208.66;5054832;28;20037;-78
2023/03/20 11:37:50;;;;;;;10.35;4.30;;;;;;;4.49;34.49;64197.47;5037470;28;20033;-81
2023/03/20 11:40:22;;;;;;;6.10;2.50;;;;;;;4.46;34.85;64193.56;5070907;28;20047;-79
2023/03/20 11:42:59;;;;;;;4.40;2.50;;;;;;;4.68;35.02;64217.63;5072537;28;20045;-78
2023/03/20 11:45:27;;;;;;;3.47;2.15;;;;;;;4.73;34.93;64223.22;5054010;28;20045;-81
2023/03/20 11:47:55;;;;;;;3.53;2.20;;;;;;;4.77;35.46;64227.69;5056159;28;20495;-80
2023/03/20 11:50:25;;;;;;;14.90;3.40;;;;;;;4.79;35.63;64229.94;5074427;28;20086;-80
2023/03/20 11:52:51;;;;;;;;;;;;;;;4.66;34.94;64215.38;5076042;28;20127;-80
2023/03/20 11:55:27;;;;;;;3.67;1.85;;;;;;;4.49;35.35;64197.47;5074359;28;20359;-81
2023/03/20 11:58:02;;;;;;;3.92;2.15;;;;;;;4.33;35.42;64180.16;5074387;28;20044;-82
2023/03/20 12:00:40;;;;;;;2.20;2.00;;;;;;;4.32;35.91;64179.00;5075887;28;20044;-78
2023/03/20 12:03:37;;;;;;;4.50;2.20;;;;;;;4.33;35.91;64180.16;5092360;28;20047;-79
2023/03/20 12:06:06;;;;;;;7.07;2.30;;;;;;;4.22;35.92;64167.28;5074647;28;20043;-80